createdAt,value
2023-03-18T00:00:13.579Z,57.43
2023-03-18T00:02:42.292Z,57.34
2023-03-18T00:05:11.697Z,57.31
2023-03-18T00:07:40.598Z,57.22
2023-03-18T00:10:12.025Z,57.26
2023-03-18T00:12:41.865Z,57.32
2023-03-18T00:15:17.886Z,57.13
2023-03-18T00:17:46.724Z,57.05
2023-03-18T00:20:17.107Z,56.94
2023-03-18T00:22:46.869Z,57.03
2023-03-18T00:25:16.547Z,56.80
2023-03-18T00:27:44.884Z,56.70
2023-03-18T00:30:15.262Z,56.61
2023-03-18T00:32:43.676Z,56.52
2023-03-18T00:35:12.277Z,56.45
2023-03-18T00:37:40.752Z,56.55
2023-03-18T00:40:17.446Z,56.37
2023-03-18T00:42:50.576Z,56.39
2023-03-18T00:45:20.411Z,56.45
2023-03-18T00:47:50.214Z,56.39
2023-03-18T00:50:18.763Z,56.48
2023-03-18T00:52:47.027Z,56.59
2023-03-18T00:55:15.860Z,56.71
2023-03-18T00:57:44.196Z,56.61
2023-03-18T01:00:17.013Z,56.76
2023-03-18T01:02:49.299Z,56.78
2023-03-18T01:05:17.618Z,56.86
2023-03-18T01:07:46.450Z,56.91
2023-03-18T01:10:15.967Z,57.18
2023-03-18T01:12:46.686Z,57.19
2023-03-18T01:15:17.077Z,57.22
2023-03-18T01:17:47.122Z,57.39
2023-03-18T01:20:18.356Z,57.36
2023-03-18T01:22:50.492Z,57.34
2023-03-18T01:25:20.407Z,57.24
2023-03-18T01:27:52.511Z,57.00
2023-03-18T01:30:21.526Z,57.02
2023-03-18T01:32:51.542Z,56.92
2023-03-18T01:35:20.163Z,56.81
2023-03-18T01:37:51.553Z,56.74
2023-03-18T01:40:20.842Z,56.61
2023-03-18T01:42:57.129Z,56.46
2023-03-18T01:45:29.836Z,56.39
2023-03-18T01:48:02.397Z,56.30
2023-03-18T01:50:33.587Z,56.39
2023-03-18T01:53:06.343Z,56.26
2023-03-18T01:55:37.039Z,56.03
2023-03-18T01:58:11.356Z,55.90
2023-03-18T02:00:46.155Z,55.90
2023-03-18T02:03:16.762Z,55.84
2023-03-18T02:05:45.481Z,55.92
2023-03-18T02:08:14.090Z,55.81
2023-03-18T02:10:42.375Z,55.90
2023-03-18T02:13:16.005Z,55.64
2023-03-18T02:15:49.615Z,55.78
2023-03-18T02:18:25.173Z,55.68
2023-03-18T02:21:07.353Z,55.51
2023-03-18T02:23:42.879Z,55.38
2023-03-18T02:26:20.164Z,55.44
2023-03-18T02:28:51.853Z,55.48
2023-03-18T02:31:21.027Z,55.49
2023-03-18T02:33:49.976Z,55.38
2023-03-18T02:36:21.405Z,55.36
2023-03-18T02:38:50.439Z,55.36
2023-03-18T02:41:27.159Z,55.49
2023-03-18T02:43:57.113Z,55.52
2023-03-18T02:46:34.187Z,55.57
2023-03-18T02:49:04.704Z,55.68
2023-03-18T02:51:33.226Z,55.65
2023-03-18T02:54:06.541Z,55.53
2023-03-18T02:56:35.092Z,55.59
2023-03-18T02:59:04.913Z,55.60
2023-03-18T03:01:33.728Z,55.52
2023-03-18T03:04:02.738Z,55.64
2023-03-18T03:06:31.613Z,55.55
2023-03-18T03:09:00.606Z,55.58
2023-03-18T03:11:29.705Z,55.52
2023-03-18T03:14:06.978Z,55.36
2023-03-18T03:16:37.084Z,55.38
2023-03-18T03:19:05.934Z,55.55
2023-03-18T03:21:36.100Z,55.59
2023-03-18T03:24:04.881Z,55.66
2023-03-18T03:26:33.686Z,55.59
2023-03-18T03:29:01.980Z,55.61
2023-03-18T03:31:31.823Z,55.53
2023-03-18T03:34:00.830Z,55.51
2023-03-18T03:36:29.194Z,55.57
2023-03-18T03:38:58.167Z,55.48
2023-03-18T03:41:27.584Z,55.65
2023-03-18T03:43:56.092Z,55.67
2023-03-18T03:46:24.510Z,55.62
2023-03-18T03:48:54.345Z,55.61
2023-03-18T03:51:23.991Z,55.73
2023-03-18T03:53:52.804Z,55.82
2023-03-18T03:56:21.253Z,55.88
2023-03-18T03:58:49.577Z,55.76
2023-03-18T04:01:18.780Z,55.83
2023-03-18T04:03:48.583Z,55.78
2023-03-18T04:06:19.766Z,55.79
2023-03-18T04:08:57.167Z,55.81
2023-03-18T04:11:26.231Z,55.85
2023-03-18T04:13:54.704Z,55.81
2023-03-18T04:16:23.205Z,55.86
2023-03-18T04:18:51.666Z,55.67
2023-03-18T04:21:25.073Z,55.70
2023-03-18T04:23:56.592Z,55.64
2023-03-18T04:26:24.997Z,55.49
2023-03-18T04:28:55.039Z,55.61
2023-03-18T04:31:24.425Z,55.58
2023-03-18T04:33:52.702Z,55.78
2023-03-18T04:36:21.300Z,55.88
2023-03-18T04:38:51.452Z,56.06
2023-03-18T04:41:19.810Z,56.07
2023-03-18T04:43:48.914Z,56.08
2023-03-18T04:46:17.785Z,56.10
2023-03-18T04:48:48.229Z,56.07
2023-03-18T04:51:16.717Z,56.23
2023-03-18T04:53:45.144Z,56.39
2023-03-18T04:56:15.761Z,56.32
2023-03-18T04:58:49.651Z,56.42
2023-03-18T05:01:27.256Z,56.39
2023-03-18T05:03:56.111Z,56.42
2023-03-18T05:06:29.355Z,56.55
2023-03-18T05:09:02.787Z,56.55
2023-03-18T05:11:36.523Z,56.62
2023-03-18T05:14:15.596Z,56.69
2023-03-18T05:16:47.828Z,56.57
2023-03-18T05:19:17.253Z,56.64
2023-03-18T05:21:57.377Z,56.59
2023-03-18T05:24:26.306Z,56.58
2023-03-18T05:26:57.440Z,56.63
2023-03-18T05:29:32.227Z,56.70
2023-03-18T05:32:16.684Z,56.94
2023-03-18T05:34:46.712Z,56.88
2023-03-18T05:37:16.485Z,56.84
2023-03-18T05:39:50.882Z,56.81
2023-03-18T05:42:22.478Z,56.80
2023-03-18T05:44:51.032Z,56.89
2023-03-18T05:47:23.374Z,57.03
2023-03-18T05:50:07.421Z,57.04
2023-03-18T05:52:36.903Z,56.93
2023-03-18T05:55:08.469Z,56.94
2023-03-18T05:57:41.984Z,56.97
2023-03-18T06:00:13.517Z,56.77
2023-03-18T06:02:46.420Z,56.84
2023-03-18T06:05:16.014Z,56.78
2023-03-18T06:07:47.008Z,57.03
2023-03-18T06:10:16.794Z,57.13
2023-03-18T06:12:49.347Z,57.04
2023-03-18T06:15:18.853Z,57.05
2023-03-18T06:17:48.729Z,57.00
2023-03-18T06:20:18.698Z,57.06
2023-03-18T06:22:49.580Z,57.00
2023-03-18T06:25:19.849Z,56.85
2023-03-18T06:27:52.229Z,56.64
2023-03-18T06:30:23.972Z,56.68
2023-03-18T06:32:53.381Z,56.51
2023-03-18T06:35:26.641Z,56.37
2023-03-18T06:37:55.990Z,56.01
2023-03-18T06:40:25.710Z,55.51
2023-03-18T06:42:56.875Z,55.09
2023-03-18T06:45:31.404Z,54.84
2023-03-18T06:48:06.000Z,54.61
2023-03-18T06:50:39.642Z,54.55
2023-03-18T06:53:14.265Z,54.47
2023-03-18T06:55:44.032Z,54.42
2023-03-18T06:58:13.880Z,54.52
2023-03-18T07:00:49.181Z,54.40
2023-03-18T07:03:23.165Z,54.49
2023-03-18T07:05:54.430Z,54.41
2023-03-18T07:08:22.830Z,54.57
2023-03-18T07:10:56.275Z,54.80
2023-03-18T07:13:28.720Z,54.71
2023-03-18T07:15:57.525Z,54.81
2023-03-18T07:18:26.709Z,54.95
2023-03-18T07:20:55.130Z,54.96
2023-03-18T07:23:25.036Z,55.07
2023-03-18T07:25:53.299Z,55.16
2023-03-18T07:28:21.636Z,55.26
2023-03-18T07:30:53.960Z,55.31
2023-03-18T07:33:22.579Z,55.40
2023-03-18T07:35:51.181Z,55.42
2023-03-18T07:38:19.488Z,55.52
2023-03-18T07:40:48.315Z,55.47
2023-03-18T07:43:17.372Z,55.42
2023-03-18T07:45:45.681Z,55.26
2023-03-18T07:48:15.436Z,55.25
2023-03-18T07:50:43.736Z,55.14
2023-03-18T07:53:12.521Z,55.04
2023-03-18T07:55:41.880Z,55.13
2023-03-18T07:58:10.198Z,55.09
2023-03-18T08:00:39.330Z,55.11
2023-03-18T08:03:07.642Z,54.94
2023-03-18T08:05:37.309Z,54.86
2023-03-18T08:08:05.986Z,55.05
2023-03-18T08:10:35.460Z,55.09
2023-03-18T08:13:04.031Z,55.00
2023-03-18T08:15:32.589Z,55.39
2023-03-18T08:18:01.228Z,55.39
2023-03-18T08:20:29.497Z,55.28
2023-03-18T08:22:59.338Z,56.97
2023-03-18T08:25:27.838Z,56.42
2023-03-18T08:27:56.727Z,56.77
2023-03-18T08:30:28.739Z,56.99
2023-03-18T08:32:57.684Z,56.90
2023-03-18T08:35:25.992Z,57.48
2023-03-18T08:37:55.617Z,57.96
2023-03-18T08:40:26.083Z,59.38
2023-03-18T08:42:54.936Z,58.64
2023-03-18T08:45:23.217Z,58.85
2023-03-18T08:47:51.533Z,57.89
2023-03-18T08:50:20.846Z,59.43
2023-03-18T08:52:49.106Z,59.07
2023-03-18T08:55:17.516Z,59.70
2023-03-18T08:57:47.539Z,59.66
2023-03-18T09:00:16.790Z,58.90
2023-03-18T09:02:45.037Z,59.28
2023-03-18T09:05:13.328Z,59.50
2023-03-18T09:07:41.698Z,60.36
2023-03-18T09:10:12.933Z,61.02
2023-03-18T09:12:42.323Z,61.07
2023-03-18T09:15:14.818Z,61.08
2023-03-18T09:17:59.917Z,60.25
2023-03-18T09:20:33.377Z,59.79
2023-03-18T09:23:02.449Z,59.21
2023-03-18T09:25:31.103Z,59.67
2023-03-18T09:28:00.934Z,58.53
2023-03-18T09:30:31.965Z,57.69
2023-03-18T09:33:00.417Z,58.54
2023-03-18T09:35:29.814Z,57.77
2023-03-18T09:37:58.145Z,57.79
2023-03-18T09:40:29.485Z,58.58
2023-03-18T09:43:08.874Z,57.75
2023-03-18T09:45:50.838Z,58.67
2023-03-18T09:48:51.700Z,57.87
2023-03-18T09:51:31.590Z,58.54
2023-03-18T09:54:04.411Z,58.71
2023-03-18T09:56:36.018Z,60.23
2023-03-18T09:59:07.431Z,60.47
2023-03-18T10:01:40.397Z,60.38
2023-03-18T10:04:16.821Z,60.27
2023-03-18T10:06:47.248Z,60.54
2023-03-18T10:09:20.269Z,60.55
2023-03-18T10:11:49.874Z,59.39
2023-03-18T10:14:31.922Z,59.76
2023-03-18T10:17:14.515Z,59.80
2023-03-18T10:19:47.561Z,59.92
2023-03-18T10:22:35.787Z,59.26
2023-03-18T10:25:12.440Z,59.86
2023-03-18T10:27:51.772Z,60.50
2023-03-18T10:30:34.216Z,60.72
2023-03-18T10:33:14.842Z,60.42
2023-03-18T10:35:49.996Z,61.24
2023-03-18T10:38:23.127Z,61.62
2023-03-18T10:40:51.519Z,61.67
2023-03-18T10:43:22.944Z,61.66
2023-03-18T10:45:59.903Z,61.60
2023-03-18T10:48:33.457Z,61.36
2023-03-18T10:51:11.313Z,62.54
2023-03-18T10:53:44.000Z,62.53
2023-03-18T10:56:14.010Z,64.89
2023-03-18T10:58:43.436Z,63.85
2023-03-18T11:01:14.077Z,63.84
2023-03-18T11:03:48.735Z,64.01
2023-03-18T11:06:21.170Z,63.82
2023-03-18T11:08:50.015Z,62.87
2023-03-18T11:11:26.128Z,64.46
2023-03-18T11:13:55.929Z,66.82
2023-03-18T11:16:30.581Z,64.69
2023-03-18T11:19:00.306Z,66.05
2023-03-18T11:21:29.896Z,67.03
2023-03-18T11:24:24.567Z,65.73
2023-03-18T11:26:56.536Z,67.28
2023-03-18T11:29:29.069Z,64.14
2023-03-18T11:31:59.121Z,64.49
2023-03-18T11:34:30.752Z,64.85
2023-03-18T11:37:04.441Z,64.40
2023-03-18T11:39:37.536Z,64.20
2023-03-18T11:42:18.888Z,66.14
2023-03-18T11:44:47.728Z,65.25
2023-03-18T11:47:20.793Z,65.77
2023-03-18T11:49:50.464Z,64.89
2023-03-18T11:52:31.390Z,66.30
2023-03-18T11:55:10.926Z,64.22
2023-03-18T11:57:58.347Z,67.49
2023-03-18T12:00:34.004Z,65.88
2023-03-18T12:03:45.512Z,67.75
2023-03-18T12:06:21.899Z,67.27
2023-03-18T12:09:01.628Z,67.18
2023-03-18T12:11:46.954Z,65.20
2023-03-18T12:14:25.874Z,66.88
2023-03-18T12:17:03.975Z,67.85
2023-03-18T12:20:02.878Z,66.82
2023-03-18T12:22:53.100Z,65.85
2023-03-18T12:25:47.598Z,65.78
2023-03-18T12:28:27.815Z,66.92
2023-03-18T12:31:29.362Z,67.52
2023-03-18T12:34:01.572Z,65.79
2023-03-18T12:36:42.502Z,65.91
2023-03-18T12:39:47.885Z,66.70
2023-03-18T12:42:27.118Z,66.56
2023-03-18T12:45:01.087Z,66.91
2023-03-18T12:47:37.000Z,66.02
2023-03-18T12:50:15.608Z,66.50
2023-03-18T12:52:49.204Z,65.77
2023-03-18T12:55:22.931Z,65.92
2023-03-18T12:57:57.670Z,66.26
2023-03-18T13:00:32.253Z,66.34
2023-03-18T13:03:07.500Z,66.06
2023-03-18T13:05:46.517Z,66.33
2023-03-18T13:08:28.318Z,65.75
2023-03-18T13:11:06.015Z,65.96
2023-03-18T13:13:39.606Z,66.10
2023-03-18T13:16:09.068Z,65.40
2023-03-18T13:18:43.478Z,66.95
2023-03-18T13:21:16.088Z,66.19
2023-03-18T13:24:22.977Z,66.13
2023-03-18T13:27:13.848Z,66.02
2023-03-18T13:29:50.701Z,66.11
2023-03-18T13:32:38.598Z,65.81
2023-03-18T13:35:23.565Z,65.47
2023-03-18T13:38:08.762Z,65.45
2023-03-18T13:41:08.735Z,65.92
2023-03-18T13:43:41.489Z,66.81
2023-03-18T13:46:20.672Z,67.34
2023-03-18T13:48:50.160Z,65.85
2023-03-18T13:51:42.288Z,65.97
2023-03-18T13:54:18.861Z,65.43
2023-03-18T13:56:50.499Z,66.73
2023-03-18T13:59:46.924Z,65.78
2023-03-18T14:02:35.500Z,64.68
2023-03-18T14:05:04.195Z,65.85
2023-03-18T14:07:33.095Z,66.27
2023-03-18T14:10:20.451Z,65.30
2023-03-18T14:12:49.394Z,65.94
2023-03-18T14:15:45.539Z,65.66
2023-03-18T14:18:28.643Z,66.33
2023-03-18T14:21:04.633Z,66.13
2023-03-18T14:23:46.471Z,66.02
2023-03-18T14:26:24.107Z,66.10
2023-03-18T14:28:57.249Z,65.66
2023-03-18T14:31:35.157Z,65.98
2023-03-18T14:34:21.118Z,66.21
2023-03-18T14:37:25.407Z,65.91
2023-03-18T14:39:56.810Z,66.65
2023-03-18T14:42:31.638Z,65.64
2023-03-18T14:45:06.702Z,66.32
2023-03-18T14:47:42.926Z,66.20
2023-03-18T14:50:30.513Z,66.62
2023-03-18T14:53:05.475Z,66.75
2023-03-18T14:55:36.614Z,66.98
2023-03-18T14:58:05.390Z,68.33
2023-03-18T15:00:36.412Z,68.33
2023-03-18T15:03:08.784Z,68.33
2023-03-18T15:05:41.147Z,68.05
2023-03-18T15:08:15.015Z,68.45
2023-03-18T15:10:44.727Z,68.91
2023-03-18T15:13:15.369Z,68.06
2023-03-18T15:15:43.988Z,68.49
2023-03-18T15:18:19.637Z,69.13
2023-03-18T15:20:52.696Z,69.52
2023-03-18T15:23:27.065Z,69.85
2023-03-18T15:25:55.978Z,69.52
2023-03-18T15:28:26.670Z,69.94
2023-03-18T15:30:56.411Z,70.15
2023-03-18T15:33:27.252Z,70.33
2023-03-18T15:35:58.826Z,70.08
2023-03-18T15:38:29.125Z,69.81
2023-03-18T15:41:01.587Z,69.81
2023-03-18T15:43:35.541Z,69.76
2023-03-18T15:46:09.511Z,69.63
2023-03-18T15:48:41.605Z,69.00
2023-03-18T15:51:26.033Z,69.59
2023-03-18T15:53:58.830Z,69.64
2023-03-18T15:56:29.691Z,69.65
2023-03-18T15:59:02.625Z,70.17
2023-03-18T16:01:31.093Z,70.05
2023-03-18T16:04:00.607Z,69.78
2023-03-18T16:06:34.336Z,69.90
2023-03-18T16:09:18.273Z,69.91
2023-03-18T16:11:49.574Z,69.81
2023-03-18T16:14:19.706Z,70.27
2023-03-18T16:16:48.672Z,70.61
2023-03-18T16:19:24.898Z,71.67
2023-03-18T16:21:54.980Z,71.09
2023-03-18T16:24:23.815Z,71.19
2023-03-18T16:26:53.509Z,71.22
2023-03-18T16:29:27.818Z,71.15
2023-03-18T16:31:56.325Z,71.36
2023-03-18T16:34:24.714Z,71.32
2023-03-18T16:36:54.431Z,71.12
2023-03-18T16:39:25.057Z,71.35
2023-03-18T16:41:53.704Z,71.40
2023-03-18T16:44:23.851Z,71.71
2023-03-18T16:46:55.515Z,72.10
2023-03-18T16:49:25.906Z,71.98
2023-03-18T16:51:55.590Z,72.36
2023-03-18T16:54:25.778Z,72.22
2023-03-18T16:56:57.497Z,71.90
2023-03-18T16:59:31.542Z,72.14
2023-03-18T17:02:00.779Z,72.92
2023-03-18T17:04:31.590Z,73.28
2023-03-18T17:07:03.740Z,73.03
2023-03-18T17:09:33.020Z,72.56
2023-03-18T17:12:05.633Z,72.67
2023-03-18T17:14:37.546Z,72.62
2023-03-18T17:17:08.563Z,72.75
2023-03-18T17:19:36.858Z,72.64
2023-03-18T17:22:20.994Z,71.82
2023-03-18T17:24:49.874Z,66.96
2023-03-18T17:27:22.058Z,54.92
2023-03-18T17:29:51.112Z,52.56
2023-03-18T17:32:19.566Z,52.38
2023-03-18T17:34:50.487Z,52.05
2023-03-18T17:37:20.370Z,52.64
2023-03-18T17:39:48.747Z,52.59
2023-03-18T17:42:28.637Z,53.14
2023-03-18T17:44:57.633Z,53.39
2023-03-18T17:47:26.346Z,54.06
2023-03-18T17:49:54.930Z,54.26
2023-03-18T17:52:25.213Z,53.93
2023-03-18T17:54:53.509Z,53.86
2023-03-18T17:57:21.727Z,53.93
2023-03-18T17:59:50.028Z,54.46
2023-03-18T18:02:20.353Z,53.01
2023-03-18T18:04:48.693Z,52.84
2023-03-18T18:07:18.875Z,52.50
2023-03-18T18:09:49.211Z,52.09
2023-03-18T18:12:21.485Z,51.86
2023-03-18T18:14:50.011Z,51.82
2023-03-18T18:17:19.274Z,50.37
2023-03-18T18:19:47.567Z,50.32
2023-03-18T18:22:17.938Z,50.30
2023-03-18T18:24:47.164Z,50.29
2023-03-18T18:27:16.931Z,50.36
2023-03-18T18:29:45.983Z,51.01
2023-03-18T18:32:15.636Z,50.44
2023-03-18T18:34:43.965Z,50.54
2023-03-18T18:37:12.782Z,50.68
2023-03-18T18:39:42.599Z,50.74
2023-03-18T18:42:12.369Z,51.27
2023-03-18T18:44:43.375Z,50.79
2023-03-18T18:47:19.165Z,50.88
2023-03-18T18:49:47.993Z,50.39
2023-03-18T18:52:16.978Z,51.04
2023-03-18T18:54:45.220Z,50.95
2023-03-18T18:57:24.535Z,51.42
2023-03-18T18:59:54.304Z,50.95
2023-03-18T19:02:30.706Z,50.89
2023-03-18T19:05:00.039Z,51.46
2023-03-18T19:07:29.362Z,51.21
2023-03-18T19:09:57.638Z,51.26
2023-03-18T19:12:27.582Z,51.25
2023-03-18T19:14:57.399Z,51.27
2023-03-18T19:17:25.934Z,51.26
2023-03-18T19:19:54.713Z,51.85
2023-03-18T19:22:23.465Z,52.01
2023-03-18T19:24:51.738Z,51.50
2023-03-18T19:27:24.139Z,51.84
2023-03-18T19:29:54.138Z,51.96
2023-03-18T19:32:25.590Z,52.04
2023-03-18T19:34:54.748Z,52.11
2023-03-18T19:37:27.293Z,51.76
2023-03-18T19:39:55.857Z,51.88
2023-03-18T19:42:24.285Z,51.91
2023-03-18T19:44:52.908Z,51.46
2023-03-18T19:47:26.204Z,51.87
2023-03-18T19:49:55.126Z,52.20
2023-03-18T19:52:25.261Z,52.04
2023-03-18T19:54:54.069Z,51.88
2023-03-18T19:57:25.562Z,51.52
2023-03-18T19:59:56.342Z,51.17
2023-03-18T20:02:28.669Z,51.60
2023-03-18T20:04:59.180Z,51.88
2023-03-18T20:07:29.990Z,51.53
2023-03-18T20:09:58.382Z,52.18
2023-03-18T20:12:30.764Z,52.16
2023-03-18T20:14:59.063Z,51.92
2023-03-18T20:17:37.414Z,52.01
2023-03-18T20:20:07.339Z,52.27
2023-03-18T20:22:38.417Z,52.43
2023-03-18T20:25:09.403Z,52.32
2023-03-18T20:27:37.815Z,52.44
2023-03-18T20:30:17.416Z,52.19
2023-03-18T20:32:47.163Z,51.94
2023-03-18T20:35:15.734Z,52.12
2023-03-18T20:37:44.101Z,51.76
2023-03-18T20:40:20.222Z,52.12
2023-03-18T20:42:48.781Z,51.91
2023-03-18T20:45:17.820Z,51.99
2023-03-18T20:47:47.542Z,52.18
2023-03-18T20:50:17.894Z,52.07
2023-03-18T20:52:48.149Z,52.11
2023-03-18T20:55:25.357Z,51.96
2023-03-18T20:57:54.705Z,52.43
2023-03-18T21:00:24.675Z,52.14
2023-03-18T21:02:56.355Z,52.27
2023-03-18T21:05:25.146Z,52.63
2023-03-18T21:07:53.883Z,52.45
2023-03-18T21:10:24.365Z,52.40
2023-03-18T21:12:53.305Z,52.53
2023-03-18T21:15:24.728Z,52.07
2023-03-18T21:17:55.002Z,52.23
2023-03-18T21:20:27.260Z,52.31
2023-03-18T21:22:56.436Z,52.39
2023-03-18T21:25:26.340Z,52.43
2023-03-18T21:27:55.197Z,52.75
2023-03-18T21:30:24.437Z,52.72
2023-03-18T21:32:54.192Z,52.99
2023-03-18T21:35:24.720Z,52.95
2023-03-18T21:37:53.971Z,52.95
2023-03-18T21:40:23.669Z,53.18
2023-03-18T21:42:52.340Z,53.07
2023-03-18T21:45:22.920Z,53.21
2023-03-18T21:47:52.533Z,52.98
2023-03-18T21:50:24.399Z,53.16
2023-03-18T21:52:53.790Z,53.38
2023-03-18T21:55:22.990Z,52.94
2023-03-18T21:57:51.356Z,53.20
2023-03-18T22:00:21.592Z,53.00
2023-03-18T22:02:50.643Z,53.07
2023-03-18T22:05:21.699Z,52.91
2023-03-18T22:07:51.806Z,53.07
2023-03-18T22:10:22.913Z,53.25
2023-03-18T22:12:51.756Z,53.10
2023-03-18T22:15:38.606Z,53.18
2023-03-18T22:18:07.790Z,53.37
2023-03-18T22:20:36.502Z,53.19
2023-03-18T22:23:13.910Z,53.19
2023-03-18T22:25:42.397Z,53.33
2023-03-18T22:28:12.148Z,53.18
2023-03-18T22:30:42.613Z,53.33
2023-03-18T22:33:20.129Z,53.11
2023-03-18T22:35:48.807Z,53.40
2023-03-18T22:38:20.348Z,53.30
2023-03-18T22:40:52.166Z,53.06
2023-03-18T22:43:29.451Z,52.95
2023-03-18T22:45:58.509Z,52.85
2023-03-18T22:48:26.835Z,53.07
2023-03-18T22:50:55.959Z,53.20
2023-03-18T22:53:29.212Z,53.49
2023-03-18T22:55:58.208Z,54.24
2023-03-18T22:58:28.258Z,54.81
2023-03-18T23:00:57.274Z,55.39
2023-03-18T23:03:29.424Z,55.74
2023-03-18T23:05:58.681Z,56.39
2023-03-18T23:08:28.744Z,56.30
2023-03-18T23:10:59.992Z,56.33
2023-03-18T23:13:30.101Z,56.23
2023-03-18T23:15:59.194Z,56.58
2023-03-18T23:18:27.538Z,56.29
2023-03-18T23:20:55.847Z,56.52
2023-03-18T23:23:24.647Z,56.28
2023-03-18T23:25:54.287Z,56.28
2023-03-18T23:28:22.712Z,56.05
2023-03-18T23:30:53.040Z,55.78
2023-03-18T23:33:21.543Z,55.49
2023-03-18T23:35:49.868Z,55.34
2023-03-18T23:38:18.183Z,55.37
2023-03-18T23:40:46.479Z,55.32
2023-03-18T23:43:16.166Z,55.75
2023-03-18T23:45:44.596Z,55.96
2023-03-18T23:48:12.906Z,56.08
2023-03-18T23:50:41.381Z,55.71
2023-03-18T23:53:09.681Z,55.39
2023-03-18T23:55:38.673Z,55.29
2023-03-18T23:58:06.964Z,55.03
